sensor_id;sensor_type;location;lat;lon;timestamp;temperature;humidity
16846;DHT22;8539;53.188;8.696;2022-10-01T00:01:39;11.90;99.90
16846;DHT22;8539;53.188;8.696;2022-10-01T00:04:05;12.00;99.90
16846;DHT22;8539;53.188;8.696;2022-10-01T00:06:38;12.00;99.90
16846;DHT22;8539;53.188;8.696;2022-10-01T00:09:04;11.90;99.90
16846;DHT22;8539;53.188;8.696;2022-10-01T00:11:30;11.90;99.90
16846;DHT22;8539;53.188;8.696;2022-10-01T00:13:59;11.90;99.90
16846;DHT22;8539;53.188;8.696;2022-10-01T00:16:28;11.90;99.90
16846;DHT22;8539;53.188;8.696;2022-10-01T00:18:54;11.90;99.90
16846;DHT22;8539;53.188;8.696;2022-10-01T00:21:26;11.90;99.90
16846;DHT22;8539;53.188;8.696;2022-10-01T00:23:55;11.90;99.90
16846;DHT22;8539;53.188;8.696;2022-10-01T00:26:23;11.90;99.90
16846;DHT22;8539;53.188;8.696;2022-10-01T00:28:55;11.90;99.90
16846;DHT22;8539;53.188;8.696;2022-10-01T00:31:21;11.90;99.90
16846;DHT22;8539;53.188;8.696;2022-10-01T00:33:50;11.90;99.90
16846;DHT22;8539;53.188;8.696;2022-10-01T00:36:16;11.90;99.90
16846;DHT22;8539;53.188;8.696;2022-10-01T00:38:42;11.90;99.90
16846;DHT22;8539;53.188;8.696;2022-10-01T00:41:09;11.90;99.90
16846;DHT22;8539;53.188;8.696;2022-10-01T00:43:40;11.90;99.90
16846;DHT22;8539;53.188;8.696;2022-10-01T00:51:22;11.90;99.90
16846;DHT22;8539;53.188;8.696;2022-10-01T00:53:49;11.90;99.90
16846;DHT22;8539;53.188;8.696;2022-10-01T00:56:15;11.90;99.90
16846;DHT22;8539;53.188;8.696;2022-10-01T00:58:42;11.90;99.90
16846;DHT22;8539;53.188;8.696;2022-10-01T01:01:08;11.90;99.90
16846;DHT22;8539;53.188;8.696;2022-10-01T01:03:37;11.90;99.90
16846;DHT22;8539;53.188;8.696;2022-10-01T01:06:04;11.90;99.90
16846;DHT22;8539;53.188;8.696;2022-10-01T01:08:32;11.90;99.90
16846;DHT22;8539;53.188;8.696;2022-10-01T01:16:45;11.90;99.90
16846;DHT22;8539;53.188;8.696;2022-10-01T01:21:52;11.90;99.90
16846;DHT22;8539;53.188;8.696;2022-10-01T01:27:23;12.00;99.90
16846;DHT22;8539;53.188;8.696;2022-10-01T01:29:55;11.90;99.90
16846;DHT22;8539;53.188;8.696;2022-10-01T01:35:29;11.90;99.90
16846;DHT22;8539;53.188;8.696;2022-10-01T01:38:03;11.90;99.90
16846;DHT22;8539;53.188;8.696;2022-10-01T01:40:34;12.00;99.90
16846;DHT22;8539;53.188;8.696;2022-10-01T01:43:06;11.90;99.90
16846;DHT22;8539;53.188;8.696;2022-10-01T01:45:34;12.00;99.90
16846;DHT22;8539;53.188;8.696;2022-10-01T01:48:06;12.00;99.90
16846;DHT22;8539;53.188;8.696;2022-10-01T01:50:50;12.00;99.90
16846;DHT22;8539;53.188;8.696;2022-10-01T01:53:18;11.90;99.90
16846;DHT22;8539;53.188;8.696;2022-10-01T01:55:46;12.00;99.90
16846;DHT22;8539;53.188;8.696;2022-10-01T01:58:15;11.90;99.90
16846;DHT22;8539;53.188;8.696;2022-10-01T02:00:41;11.90;99.90
16846;DHT22;8539;53.188;8.696;2022-10-01T02:03:08;11.90;99.90
16846;DHT22;8539;53.188;8.696;2022-10-01T02:05:41;11.80;99.90
16846;DHT22;8539;53.188;8.696;2022-10-01T02:08:22;11.80;99.90
16846;DHT22;8539;53.188;8.696;2022-10-01T02:13:56;11.70;99.90
16846;DHT22;8539;53.188;8.696;2022-10-01T02:22:11;11.50;99.90
16846;DHT22;8539;53.188;8.696;2022-10-01T02:24:54;11.50;99.90
16846;DHT22;8539;53.188;8.696;2022-10-01T02:27:31;11.50;99.90
16846;DHT22;8539;53.188;8.696;2022-10-01T02:30:06;11.50;99.90
16846;DHT22;8539;53.188;8.696;2022-10-01T02:32:34;11.40;99.90
16846;DHT22;8539;53.188;8.696;2022-10-01T02:35:07;11.40;99.90
16846;DHT22;8539;53.188;8.696;2022-10-01T02:37:36;11.40;99.90
16846;DHT22;8539;53.188;8.696;2022-10-01T02:40:08;11.40;99.90
16846;DHT22;8539;53.188;8.696;2022-10-01T02:42:45;11.30;99.90
16846;DHT22;8539;53.188;8.696;2022-10-01T02:45:15;11.30;99.90
16846;DHT22;8539;53.188;8.696;2022-10-01T02:47:58;11.30;99.90
16846;DHT22;8539;53.188;8.696;2022-10-01T02:50:29;11.30;99.90
16846;DHT22;8539;53.188;8.696;2022-10-01T02:53:07;11.20;99.90
16846;DHT22;8539;53.188;8.696;2022-10-01T02:55:38;11.20;99.90
16846;DHT22;8539;53.188;8.696;2022-10-01T02:58:07;11.20;99.90
16846;DHT22;8539;53.188;8.696;2022-10-01T03:00:33;11.10;99.90
16846;DHT22;8539;53.188;8.696;2022-10-01T03:03:00;11.10;99.90
16846;DHT22;8539;53.188;8.696;2022-10-01T03:05:26;11.10;99.90
16846;DHT22;8539;53.188;8.696;2022-10-01T03:07:53;11.00;99.90
16846;DHT22;8539;53.188;8.696;2022-10-01T03:10:19;11.00;99.90
16846;DHT22;8539;53.188;8.696;2022-10-01T03:12:45;11.00;99.90
16846;DHT22;8539;53.188;8.696;2022-10-01T03:15:13;10.90;99.90
16846;DHT22;8539;53.188;8.696;2022-10-01T03:17:40;10.90;99.90
16846;DHT22;8539;53.188;8.696;2022-10-01T03:20:06;10.90;99.90
16846;DHT22;8539;53.188;8.696;2022-10-01T03:22:33;10.80;99.90
16846;DHT22;8539;53.188;8.696;2022-10-01T03:25:02;10.80;99.90
16846;DHT22;8539;53.188;8.696;2022-10-01T03:27:30;10.80;99.90
16846;DHT22;8539;53.188;8.696;2022-10-01T03:29:56;10.80;99.90
16846;DHT22;8539;53.188;8.696;2022-10-01T03:32:22;10.80;99.90
16846;DHT22;8539;53.188;8.696;2022-10-01T03:34:48;10.70;99.90
16846;DHT22;8539;53.188;8.696;2022-10-01T03:37:15;10.70;99.90
16846;DHT22;8539;53.188;8.696;2022-10-01T03:39:41;10.70;99.90
16846;DHT22;8539;53.188;8.696;2022-10-01T03:42:07;10.70;99.90
16846;DHT22;8539;53.188;8.696;2022-10-01T03:44:33;10.60;99.90
16846;DHT22;8539;53.188;8.696;2022-10-01T03:47:00;10.60;99.90
16846;DHT22;8539;53.188;8.696;2022-10-01T03:49:26;10.50;99.90
16846;DHT22;8539;53.188;8.696;2022-10-01T03:51:52;10.50;99.90
16846;DHT22;8539;53.188;8.696;2022-10-01T03:54:19;10.50;99.90
16846;DHT22;8539;53.188;8.696;2022-10-01T03:56:46;10.50;99.90
16846;DHT22;8539;53.188;8.696;2022-10-01T03:59:12;10.50;99.90
16846;DHT22;8539;53.188;8.696;2022-10-01T04:01:38;10.50;99.90
16846;DHT22;8539;53.188;8.696;2022-10-01T04:04:07;10.50;99.90
16846;DHT22;8539;53.188;8.696;2022-10-01T04:06:34;10.50;99.90
16846;DHT22;8539;53.188;8.696;2022-10-01T04:09:00;10.50;99.90
16846;DHT22;8539;53.188;8.696;2022-10-01T04:11:26;10.40;99.90
16846;DHT22;8539;53.188;8.696;2022-10-01T04:13:52;10.40;99.90
16846;DHT22;8539;53.188;8.696;2022-10-01T04:16:19;10.40;99.90
16846;DHT22;8539;53.188;8.696;2022-10-01T04:18:45;10.40;99.90
16846;DHT22;8539;53.188;8.696;2022-10-01T04:21:11;10.40;99.90
16846;DHT22;8539;53.188;8.696;2022-10-01T04:23:37;10.50;99.90
16846;DHT22;8539;53.188;8.696;2022-10-01T04:26:07;10.50;99.90
16846;DHT22;8539;53.188;8.696;2022-10-01T04:28:36;10.10;99.90
16846;DHT22;8539;53.188;8.696;2022-10-01T04:31:03;10.40;99.90
16846;DHT22;8539;53.188;8.696;2022-10-01T04:33:56;10.40;99.90
16846;DHT22;8539;53.188;8.696;2022-10-01T04:36:23;10.40;99.90
16846;DHT22;8539;53.188;8.696;2022-10-01T04:38:51;10.30;99.90
16846;DHT22;8539;53.188;8.696;2022-10-01T04:41:18;10.40;99.90
16846;DHT22;8539;53.188;8.696;2022-10-01T04:43:49;10.40;99.90
16846;DHT22;8539;53.188;8.696;2022-10-01T04:46:16;10.40;99.90
16846;DHT22;8539;53.188;8.696;2022-10-01T04:48:43;10.30;99.90
16846;DHT22;8539;53.188;8.696;2022-10-01T04:51:10;10.30;99.90
16846;DHT22;8539;53.188;8.696;2022-10-01T04:53:36;10.40;99.90
16846;DHT22;8539;53.188;8.696;2022-10-01T04:56:02;10.40;99.90
16846;DHT22;8539;53.188;8.696;2022-10-01T04:58:29;10.40;99.90
16846;DHT22;8539;53.188;8.696;2022-10-01T05:00:59;10.40;99.90
16846;DHT22;8539;53.188;8.696;2022-10-01T05:03:25;10.40;99.90
16846;DHT22;8539;53.188;8.696;2022-10-01T05:05:51;10.40;99.90
16846;DHT22;8539;53.188;8.696;2022-10-01T05:08:19;10.40;99.90
16846;DHT22;8539;53.188;8.696;2022-10-01T05:10:46;10.50;99.90
16846;DHT22;8539;53.188;8.696;2022-10-01T05:13:15;10.50;99.90
16846;DHT22;8539;53.188;8.696;2022-10-01T05:15:41;10.50;99.90
16846;DHT22;8539;53.188;8.696;2022-10-01T05:18:08;10.50;99.90
16846;DHT22;8539;53.188;8.696;2022-10-01T05:20:34;10.50;99.90
16846;DHT22;8539;53.188;8.696;2022-10-01T05:23:02;10.60;99.90
16846;DHT22;8539;53.188;8.696;2022-10-01T05:25:30;10.50;99.90
16846;DHT22;8539;53.188;8.696;2022-10-01T05:28:00;10.50;99.90
16846;DHT22;8539;53.188;8.696;2022-10-01T05:30:31;10.40;99.90
16846;DHT22;8539;53.188;8.696;2022-10-01T05:33:00;10.50;99.90
16846;DHT22;8539;53.188;8.696;2022-10-01T05:35:27;10.40;99.90
16846;DHT22;8539;53.188;8.696;2022-10-01T05:37:54;10.40;99.90
16846;DHT22;8539;53.188;8.696;2022-10-01T05:40:21;10.40;99.90
16846;DHT22;8539;53.188;8.696;2022-10-01T05:42:49;10.40;99.90
16846;DHT22;8539;53.188;8.696;2022-10-01T05:45:15;10.40;99.90
16846;DHT22;8539;53.188;8.696;2022-10-01T05:47:44;10.40;99.90
16846;DHT22;8539;53.188;8.696;2022-10-01T05:50:11;10.40;99.90
16846;DHT22;8539;53.188;8.696;2022-10-01T05:52:37;10.30;99.90
16846;DHT22;8539;53.188;8.696;2022-10-01T05:55:03;10.30;99.90
16846;DHT22;8539;53.188;8.696;2022-10-01T05:57:29;10.30;99.90
16846;DHT22;8539;53.188;8.696;2022-10-01T05:59:56;10.30;99.90
16846;DHT22;8539;53.188;8.696;2022-10-01T06:02:22;10.30;99.90
16846;DHT22;8539;53.188;8.696;2022-10-01T06:04:48;10.30;99.90
16846;DHT22;8539;53.188;8.696;2022-10-01T06:07:14;10.40;99.90
16846;DHT22;8539;53.188;8.696;2022-10-01T06:09:40;10.30;99.90
16846;DHT22;8539;53.188;8.696;2022-10-01T06:12:06;10.30;99.90
16846;DHT22;8539;53.188;8.696;2022-10-01T06:14:34;10.30;99.90
16846;DHT22;8539;53.188;8.696;2022-10-01T06:17:00;10.30;99.90
16846;DHT22;8539;53.188;8.696;2022-10-01T06:19:26;10.30;99.90
16846;DHT22;8539;53.188;8.696;2022-10-01T06:21:52;10.30;99.90
16846;DHT22;8539;53.188;8.696;2022-10-01T06:24:18;10.30;99.90
16846;DHT22;8539;53.188;8.696;2022-10-01T06:26:44;10.40;99.90
16846;DHT22;8539;53.188;8.696;2022-10-01T06:29:10;10.30;99.90
16846;DHT22;8539;53.188;8.696;2022-10-01T06:31:36;10.30;99.90
16846;DHT22;8539;53.188;8.696;2022-10-01T06:34:02;10.30;99.90
16846;DHT22;8539;53.188;8.696;2022-10-01T06:36:28;10.30;99.90
16846;DHT22;8539;53.188;8.696;2022-10-01T06:38:54;10.30;99.90
16846;DHT22;8539;53.188;8.696;2022-10-01T06:41:20;10.30;99.90
16846;DHT22;8539;53.188;8.696;2022-10-01T06:43:47;10.30;99.90
16846;DHT22;8539;53.188;8.696;2022-10-01T06:46:13;10.40;99.90
16846;DHT22;8539;53.188;8.696;2022-10-01T06:48:39;10.30;99.90
16846;DHT22;8539;53.188;8.696;2022-10-01T06:51:05;10.30;99.90
16846;DHT22;8539;53.188;8.696;2022-10-01T06:53:33;10.30;99.90
16846;DHT22;8539;53.188;8.696;2022-10-01T06:56:04;10.40;99.90
16846;DHT22;8539;53.188;8.696;2022-10-01T06:58:31;10.40;99.90
16846;DHT22;8539;53.188;8.696;2022-10-01T07:01:01;10.40;99.90
16846;DHT22;8539;53.188;8.696;2022-10-01T07:03:28;10.40;99.90
16846;DHT22;8539;53.188;8.696;2022-10-01T07:06:01;10.40;99.90
16846;DHT22;8539;53.188;8.696;2022-10-01T07:08:27;10.40;99.90
16846;DHT22;8539;53.188;8.696;2022-10-01T07:10:59;10.40;99.90
16846;DHT22;8539;53.188;8.696;2022-10-01T07:13:27;10.40;99.90
16846;DHT22;8539;53.188;8.696;2022-10-01T07:15:53;10.40;99.90
16846;DHT22;8539;53.188;8.696;2022-10-01T07:18:19;10.50;99.90
16846;DHT22;8539;53.188;8.696;2022-10-01T07:20:45;10.50;99.90
16846;DHT22;8539;53.188;8.696;2022-10-01T07:23:13;10.50;99.90
16846;DHT22;8539;53.188;8.696;2022-10-01T07:25:40;10.50;99.90
16846;DHT22;8539;53.188;8.696;2022-10-01T07:28:10;10.50;99.90
16846;DHT22;8539;53.188;8.696;2022-10-01T07:31:06;10.50;99.90
16846;DHT22;8539;53.188;8.696;2022-10-01T07:33:38;10.50;99.90
16846;DHT22;8539;53.188;8.696;2022-10-01T07:36:06;10.50;99.90
16846;DHT22;8539;53.188;8.696;2022-10-01T07:38:33;10.60;99.90
16846;DHT22;8539;53.188;8.696;2022-10-01T07:40:59;10.60;99.90
16846;DHT22;8539;53.188;8.696;2022-10-01T07:43:30;10.60;99.90
16846;DHT22;8539;53.188;8.696;2022-10-01T07:45:57;10.60;99.90
16846;DHT22;8539;53.188;8.696;2022-10-01T07:48:28;10.70;99.90
16846;DHT22;8539;53.188;8.696;2022-10-01T07:50:54;11.10;99.90
16846;DHT22;8539;53.188;8.696;2022-10-01T07:53:22;10.70;99.90
16846;DHT22;8539;53.188;8.696;2022-10-01T07:55:55;10.70;99.90
16846;DHT22;8539;53.188;8.696;2022-10-01T07:58:21;10.80;99.90
16846;DHT22;8539;53.188;8.696;2022-10-01T08:00:49;10.80;99.90
16846;DHT22;8539;53.188;8.696;2022-10-01T08:03:20;10.80;99.90
16846;DHT22;8539;53.188;8.696;2022-10-01T08:05:47;10.90;99.90
16846;DHT22;8539;53.188;8.696;2022-10-01T08:08:13;11.00;99.90
16846;DHT22;8539;53.188;8.696;2022-10-01T08:10:39;10.90;99.90
16846;DHT22;8539;53.188;8.696;2022-10-01T08:13:09;11.00;99.90
16846;DHT22;8539;53.188;8.696;2022-10-01T08:15:46;11.00;99.90
16846;DHT22;8539;53.188;8.696;2022-10-01T08:18:15;11.10;99.90
16846;DHT22;8539;53.188;8.696;2022-10-01T08:20:41;11.10;99.90
16846;DHT22;8539;53.188;8.696;2022-10-01T08:23:09;11.20;99.90
16846;DHT22;8539;53.188;8.696;2022-10-01T08:25:40;11.30;99.90
16846;DHT22;8539;53.188;8.696;2022-10-01T08:28:07;11.30;99.90
16846;DHT22;8539;53.188;8.696;2022-10-01T08:30:36;11.30;99.90
16846;DHT22;8539;53.188;8.696;2022-10-01T08:33:04;12.10;99.90
16846;DHT22;8539;53.188;8.696;2022-10-01T08:35:33;11.40;99.90
16846;DHT22;8539;53.188;8.696;2022-10-01T08:38:03;11.40;99.90
16846;DHT22;8539;53.188;8.696;2022-10-01T08:40:32;11.50;99.90
16846;DHT22;8539;53.188;8.696;2022-10-01T08:43:02;11.60;99.90
16846;DHT22;8539;53.188;8.696;2022-10-01T08:45:39;11.60;99.90
16846;DHT22;8539;53.188;8.696;2022-10-01T08:51:18;10.80;99.90
16846;DHT22;8539;53.188;8.696;2022-10-01T08:53:50;11.80;99.90
16846;DHT22;8539;53.188;8.696;2022-10-01T08:56:28;11.80;99.90
16846;DHT22;8539;53.188;8.696;2022-10-01T08:58:58;11.80;99.90
16846;DHT22;8539;53.188;8.696;2022-10-01T09:01:25;11.90;99.90
16846;DHT22;8539;53.188;8.696;2022-10-01T09:03:52;12.00;99.90
16846;DHT22;8539;53.188;8.696;2022-10-01T09:09:25;12.10;99.90
16846;DHT22;8539;53.188;8.696;2022-10-01T09:12:07;12.10;99.90
16846;DHT22;8539;53.188;8.696;2022-10-01T09:15:01;12.20;99.90
16846;DHT22;8539;53.188;8.696;2022-10-01T09:20:20;12.30;99.90
16846;DHT22;8539;53.188;8.696;2022-10-01T09:23:14;12.40;99.90
16846;DHT22;8539;53.188;8.696;2022-10-01T09:25:43;12.40;99.90
16846;DHT22;8539;53.188;8.696;2022-10-01T09:28:21;12.50;99.90
16846;DHT22;8539;53.188;8.696;2022-10-01T09:30:55;12.60;99.90
16846;DHT22;8539;53.188;8.696;2022-10-01T09:33:28;12.70;99.90
16846;DHT22;8539;53.188;8.696;2022-10-01T09:36:18;12.20;99.90
16846;DHT22;8539;53.188;8.696;2022-10-01T09:38:56;12.90;99.90
16846;DHT22;8539;53.188;8.696;2022-10-01T09:41:26;13.00;99.90
16846;DHT22;8539;53.188;8.696;2022-10-01T09:43:53;13.20;99.90
16846;DHT22;8539;53.188;8.696;2022-10-01T09:46:25;13.30;99.90
16846;DHT22;8539;53.188;8.696;2022-10-01T09:51:47;13.40;99.90
16846;DHT22;8539;53.188;8.696;2022-10-01T09:54:43;13.60;99.90
16846;DHT22;8539;53.188;8.696;2022-10-01T09:57:23;13.90;99.90
16846;DHT22;8539;53.188;8.696;2022-10-01T10:00:04;14.30;99.90
16846;DHT22;8539;53.188;8.696;2022-10-01T10:02:43;14.60;99.90
16846;DHT22;8539;53.188;8.696;2022-10-01T10:05:20;14.60;99.90
16846;DHT22;8539;53.188;8.696;2022-10-01T10:07:50;14.60;99.90
16846;DHT22;8539;53.188;8.696;2022-10-01T10:10:20;14.50;99.90
16846;DHT22;8539;53.188;8.696;2022-10-01T10:13:00;14.50;99.90
16846;DHT22;8539;53.188;8.696;2022-10-01T10:15:28;14.60;99.90
16846;DHT22;8539;53.188;8.696;2022-10-01T10:18:14;14.60;99.90
16846;DHT22;8539;53.188;8.696;2022-10-01T10:20:50;14.60;99.90
16846;DHT22;8539;53.188;8.696;2022-10-01T10:23:19;14.60;99.90
16846;DHT22;8539;53.188;8.696;2022-10-01T10:26:02;14.60;99.90
16846;DHT22;8539;53.188;8.696;2022-10-01T10:28:41;14.70;99.90
16846;DHT22;8539;53.188;8.696;2022-10-01T10:31:15;14.60;99.90
16846;DHT22;8539;53.188;8.696;2022-10-01T10:33:51;14.60;99.90
16846;DHT22;8539;53.188;8.696;2022-10-01T10:36:31;14.60;99.90
16846;DHT22;8539;53.188;8.696;2022-10-01T10:38:59;14.60;99.90
16846;DHT22;8539;53.188;8.696;2022-10-01T10:41:30;14.60;99.90
16846;DHT22;8539;53.188;8.696;2022-10-01T10:44:03;14.50;99.90
16846;DHT22;8539;53.188;8.696;2022-10-01T10:46:36;14.70;99.90
16846;DHT22;8539;53.188;8.696;2022-10-01T10:49:14;14.80;99.90
16846;DHT22;8539;53.188;8.696;2022-10-01T10:51:47;14.80;99.90
16846;DHT22;8539;53.188;8.696;2022-10-01T10:54:18;14.80;99.90
16846;DHT22;8539;53.188;8.696;2022-10-01T10:56:57;14.80;99.90
16846;DHT22;8539;53.188;8.696;2022-10-01T10:59:25;14.90;99.90
16846;DHT22;8539;53.188;8.696;2022-10-01T11:01:52;14.90;99.90
16846;DHT22;8539;53.188;8.696;2022-10-01T11:04:40;15.00;99.90
16846;DHT22;8539;53.188;8.696;2022-10-01T11:07:08;15.00;99.90
16846;DHT22;8539;53.188;8.696;2022-10-01T11:12:49;15.20;99.90
16846;DHT22;8539;53.188;8.696;2022-10-01T11:15:42;15.30;99.90
16846;DHT22;8539;53.188;8.696;2022-10-01T11:23:50;15.60;99.90
16846;DHT22;8539;53.188;8.696;2022-10-01T11:26:43;15.70;99.90
16846;DHT22;8539;53.188;8.696;2022-10-01T11:29:40;15.90;99.90
16846;DHT22;8539;53.188;8.696;2022-10-01T11:40:27;15.90;99.90
16846;DHT22;8539;53.188;8.696;2022-10-01T11:43:04;16.10;99.90
16846;DHT22;8539;53.188;8.696;2022-10-01T11:45:42;16.00;99.90
16846;DHT22;8539;53.188;8.696;2022-10-01T11:48:16;16.00;99.90
16846;DHT22;8539;53.188;8.696;2022-10-01T11:50:46;15.90;99.90
16846;DHT22;8539;53.188;8.696;2022-10-01T11:53:21;15.90;99.90
16846;DHT22;8539;53.188;8.696;2022-10-01T11:56:01;15.80;99.90
16846;DHT22;8539;53.188;8.696;2022-10-01T11:58:54;15.80;99.90
16846;DHT22;8539;53.188;8.696;2022-10-01T12:02:20;15.80;99.90
16846;DHT22;8539;53.188;8.696;2022-10-01T12:04:31;15.80;99.90
16846;DHT22;8539;53.188;8.696;2022-10-01T12:07:19;15.70;99.90
16846;DHT22;8539;53.188;8.696;2022-10-01T12:12:54;15.80;99.90
16846;DHT22;8539;53.188;8.696;2022-10-01T12:15:29;15.80;99.90
16846;DHT22;8539;53.188;8.696;2022-10-01T12:18:17;15.70;99.90
16846;DHT22;8539;53.188;8.696;2022-10-01T12:20:48;15.60;99.90
16846;DHT22;8539;53.188;8.696;2022-10-01T12:23:21;15.50;99.90
16846;DHT22;8539;53.188;8.696;2022-10-01T12:54:45;12.70;99.90
16846;DHT22;8539;53.188;8.696;2022-10-01T12:57:36;12.70;99.90
16846;DHT22;8539;53.188;8.696;2022-10-01T13:00:19;12.70;99.90
16846;DHT22;8539;53.188;8.696;2022-10-01T13:14:12;12.80;99.90
16846;DHT22;8539;53.188;8.696;2022-10-01T13:19:57;13.10;99.90
16846;DHT22;8539;53.188;8.696;2022-10-01T13:22:34;13.30;99.90
16846;DHT22;8539;53.188;8.696;2022-10-01T13:34:22;14.20;99.90
16846;DHT22;8539;53.188;8.696;2022-10-01T13:36:51;14.40;99.90
16846;DHT22;8539;53.188;8.696;2022-10-01T13:39:21;14.50;99.90
16846;DHT22;8539;53.188;8.696;2022-10-01T13:41:53;14.60;99.90
16846;DHT22;8539;53.188;8.696;2022-10-01T13:44:24;14.70;99.90
16846;DHT22;8539;53.188;8.696;2022-10-01T13:47:12;14.90;99.90
16846;DHT22;8539;53.188;8.696;2022-10-01T13:50:01;15.00;99.90
16846;DHT22;8539;53.188;8.696;2022-10-01T13:52:34;15.10;99.90
16846;DHT22;8539;53.188;8.696;2022-10-01T13:55:42;15.20;99.90
16846;DHT22;8539;53.188;8.696;2022-10-01T13:58:35;15.40;99.90
16846;DHT22;8539;53.188;8.696;2022-10-01T14:08:51;15.80;99.90
16846;DHT22;8539;53.188;8.696;2022-10-01T14:11:31;15.80;99.90
16846;DHT22;8539;53.188;8.696;2022-10-01T14:17:47;15.90;99.90
16846;DHT22;8539;53.188;8.696;2022-10-01T14:21:03;15.90;99.90
16846;DHT22;8539;53.188;8.696;2022-10-01T14:26:43;15.70;99.90
16846;DHT22;8539;53.188;8.696;2022-10-01T14:29:29;15.80;99.90
16846;DHT22;8539;53.188;8.696;2022-10-01T14:32:55;15.90;99.90
16846;DHT22;8539;53.188;8.696;2022-10-01T14:35:27;16.00;99.90
16846;DHT22;8539;53.188;8.696;2022-10-01T14:38:30;16.00;99.90
16846;DHT22;8539;53.188;8.696;2022-10-01T14:40:57;15.90;99.90
16846;DHT22;8539;53.188;8.696;2022-10-01T14:43:41;15.80;99.90
16846;DHT22;8539;53.188;8.696;2022-10-01T14:46:15;15.60;99.90
16846;DHT22;8539;53.188;8.696;2022-10-01T14:48:57;15.60;99.90
16846;DHT22;8539;53.188;8.696;2022-10-01T14:51:28;15.50;99.90
16846;DHT22;8539;53.188;8.696;2022-10-01T14:54:10;15.50;99.90
16846;DHT22;8539;53.188;8.696;2022-10-01T14:56:42;15.40;99.90
16846;DHT22;8539;53.188;8.696;2022-10-01T14:59:18;15.30;99.90
16846;DHT22;8539;53.188;8.696;2022-10-01T15:01:57;15.40;99.90
16846;DHT22;8539;53.188;8.696;2022-10-01T15:04:24;15.40;99.90
16846;DHT22;8539;53.188;8.696;2022-10-01T15:06:50;15.50;99.90
16846;DHT22;8539;53.188;8.696;2022-10-01T15:09:17;15.60;99.90
16846;DHT22;8539;53.188;8.696;2022-10-01T15:11:47;15.60;99.90
16846;DHT22;8539;53.188;8.696;2022-10-01T15:14:18;15.70;99.90
16846;DHT22;8539;53.188;8.696;2022-10-01T15:16:46;15.70;99.90
16846;DHT22;8539;53.188;8.696;2022-10-01T15:19:15;15.70;99.90
16846;DHT22;8539;53.188;8.696;2022-10-01T15:24:29;15.60;99.90
16846;DHT22;8539;53.188;8.696;2022-10-01T15:26:59;15.50;99.90
16846;DHT22;8539;53.188;8.696;2022-10-01T15:29:25;15.40;99.90
16846;DHT22;8539;53.188;8.696;2022-10-01T15:31:52;15.30;99.90
16846;DHT22;8539;53.188;8.696;2022-10-01T15:34:23;15.20;99.90
16846;DHT22;8539;53.188;8.696;2022-10-01T15:36:51;15.20;99.90
16846;DHT22;8539;53.188;8.696;2022-10-01T15:39:37;15.20;99.90
16846;DHT22;8539;53.188;8.696;2022-10-01T15:42:24;15.20;99.90
16846;DHT22;8539;53.188;8.696;2022-10-01T15:47:39;15.00;99.90
16846;DHT22;8539;53.188;8.696;2022-10-01T15:55:32;14.80;99.90
16846;DHT22;8539;53.188;8.696;2022-10-01T16:00:40;14.80;99.90
16846;DHT22;8539;53.188;8.696;2022-10-01T16:03:20;14.80;99.90
16846;DHT22;8539;53.188;8.696;2022-10-01T16:05:50;14.90;99.90
16846;DHT22;8539;53.188;8.696;2022-10-01T16:08:31;14.90;99.90
16846;DHT22;8539;53.188;8.696;2022-10-01T16:11:18;14.90;99.90
16846;DHT22;8539;53.188;8.696;2022-10-01T16:13:49;14.90;99.90
16846;DHT22;8539;53.188;8.696;2022-10-01T16:16:27;14.90;99.90
16846;DHT22;8539;53.188;8.696;2022-10-01T16:19:18;14.80;99.90
16846;DHT22;8539;53.188;8.696;2022-10-01T16:22:18;14.80;99.90
16846;DHT22;8539;53.188;8.696;2022-10-01T16:24:50;14.80;99.90
16846;DHT22;8539;53.188;8.696;2022-10-01T16:27:21;14.80;99.90
16846;DHT22;8539;53.188;8.696;2022-10-01T16:29:57;14.70;99.90
16846;DHT22;8539;53.188;8.696;2022-10-01T16:32:24;14.70;99.90
16846;DHT22;8539;53.188;8.696;2022-10-01T16:34:50;14.60;99.90
16846;DHT22;8539;53.188;8.696;2022-10-01T16:37:17;14.60;99.90
16846;DHT22;8539;53.188;8.696;2022-10-01T16:39:43;14.50;99.90
16846;DHT22;8539;53.188;8.696;2022-10-01T16:42:19;14.50;99.90
16846;DHT22;8539;53.188;8.696;2022-10-01T16:44:48;14.40;99.90
16846;DHT22;8539;53.188;8.696;2022-10-01T16:47:15;14.30;99.90
16846;DHT22;8539;53.188;8.696;2022-10-01T16:49:41;14.20;99.90
16846;DHT22;8539;53.188;8.696;2022-10-01T16:52:12;14.20;99.90
16846;DHT22;8539;53.188;8.696;2022-10-01T16:54:38;14.10;99.90
16846;DHT22;8539;53.188;8.696;2022-10-01T16:57:05;14.00;99.90
16846;DHT22;8539;53.188;8.696;2022-10-01T16:59:31;13.90;99.90
16846;DHT22;8539;53.188;8.696;2022-10-01T17:01:58;13.90;99.90
16846;DHT22;8539;53.188;8.696;2022-10-01T17:04:27;13.80;99.90
16846;DHT22;8539;53.188;8.696;2022-10-01T17:06:56;13.70;99.90
16846;DHT22;8539;53.188;8.696;2022-10-01T17:09:22;13.70;99.90
16846;DHT22;8539;53.188;8.696;2022-10-01T17:11:49;13.60;99.90
16846;DHT22;8539;53.188;8.696;2022-10-01T17:14:17;13.60;99.90
16846;DHT22;8539;53.188;8.696;2022-10-01T17:16:43;13.50;99.90
16846;DHT22;8539;53.188;8.696;2022-10-01T17:19:10;13.50;99.90
16846;DHT22;8539;53.188;8.696;2022-10-01T17:21:38;13.50;99.90
16846;DHT22;8539;53.188;8.696;2022-10-01T17:24:05;13.40;99.90
16846;DHT22;8539;53.188;8.696;2022-10-01T17:26:31;13.40;99.90
16846;DHT22;8539;53.188;8.696;2022-10-01T17:28:57;13.40;99.90
16846;DHT22;8539;53.188;8.696;2022-10-01T17:31:23;13.40;99.90
16846;DHT22;8539;53.188;8.696;2022-10-01T17:33:52;13.30;99.90
16846;DHT22;8539;53.188;8.696;2022-10-01T17:36:18;13.30;99.90
16846;DHT22;8539;53.188;8.696;2022-10-01T17:38:44;13.20;99.90
16846;DHT22;8539;53.188;8.696;2022-10-01T17:41:13;13.20;99.90
16846;DHT22;8539;53.188;8.696;2022-10-01T17:43:39;13.10;99.90
16846;DHT22;8539;53.188;8.696;2022-10-01T17:46:06;13.10;99.90
16846;DHT22;8539;53.188;8.696;2022-10-01T17:48:33;13.10;99.90
16846;DHT22;8539;53.188;8.696;2022-10-01T17:51:00;13.00;99.90
16846;DHT22;8539;53.188;8.696;2022-10-01T17:53:27;13.00;99.90
16846;DHT22;8539;53.188;8.696;2022-10-01T17:55:53;13.00;99.90
16846;DHT22;8539;53.188;8.696;2022-10-01T17:58:19;12.90;99.90
16846;DHT22;8539;53.188;8.696;2022-10-01T18:00:45;12.90;99.90
16846;DHT22;8539;53.188;8.696;2022-10-01T18:03:11;12.90;99.90
16846;DHT22;8539;53.188;8.696;2022-10-01T18:05:37;12.80;99.90
16846;DHT22;8539;53.188;8.696;2022-10-01T18:08:06;12.80;99.90
16846;DHT22;8539;53.188;8.696;2022-10-01T18:10:34;12.80;99.90
16846;DHT22;8539;53.188;8.696;2022-10-01T18:13:03;12.80;99.90
16846;DHT22;8539;53.188;8.696;2022-10-01T18:15:29;12.80;99.90
16846;DHT22;8539;53.188;8.696;2022-10-01T18:17:55;12.80;99.90
16846;DHT22;8539;53.188;8.696;2022-10-01T18:20:22;12.80;99.90
16846;DHT22;8539;53.188;8.696;2022-10-01T18:22:49;12.80;99.90
16846;DHT22;8539;53.188;8.696;2022-10-01T18:25:15;12.80;99.90
16846;DHT22;8539;53.188;8.696;2022-10-01T18:27:45;12.80;99.90
16846;DHT22;8539;53.188;8.696;2022-10-01T18:30:11;12.80;99.90
16846;DHT22;8539;53.188;8.696;2022-10-01T18:32:44;12.80;99.90